sensor_id;sensor_type;location;lat;lon;timestamp;pressure;altitude;pressure_sealevel;temperature;humidity
9277;BME280;4676;42.678;23.244;2023-04-07T00:01:27;93800.50;;;2.28;nan
9277;BME280;4676;42.678;23.244;2023-04-07T00:03:54;93801.31;;;2.30;nan
9277;BME280;4676;42.678;23.244;2023-04-07T00:06:21;93801.34;;;2.27;nan
9277;BME280;4676;42.678;23.244;2023-04-07T00:08:48;93800.53;;;2.27;nan
9277;BME280;4676;42.678;23.244;2023-04-07T00:11:16;93798.06;;;2.24;nan
9277;BME280;4676;42.678;23.244;2023-04-07T00:13:43;93799.69;;;2.28;nan
9277;BME280;4676;42.678;23.244;2023-04-07T00:16:09;93798.84;;;2.27;nan
9277;BME280;4676;42.678;23.244;2023-04-07T00:18:36;93796.31;;;2.29;nan
9277;BME280;4676;42.678;23.244;2023-04-07T00:21:03;93792.22;;;2.25;nan
9277;BME280;4676;42.678;23.244;2023-04-07T00:23:30;93791.44;;;2.21;nan
9277;BME280;4676;42.678;23.244;2023-04-07T00:25:56;93793.97;;;2.18;nan
9277;BME280;4676;42.678;23.244;2023-04-07T00:28:25;93791.59;;;2.09;nan
9277;BME280;4676;42.678;23.244;2023-04-07T00:30:51;93792.38;;;2.14;nan
9277;BME280;4676;42.678;23.244;2023-04-07T00:33:18;93790.66;;;2.18;nan
9277;BME280;4676;42.678;23.244;2023-04-07T00:35:45;93788.91;;;2.24;nan
9277;BME280;4676;42.678;23.244;2023-04-07T00:38:11;93793.94;;;2.21;nan
9277;BME280;4676;42.678;23.244;2023-04-07T00:40:38;93791.44;;;2.20;nan
9277;BME280;4676;42.678;23.244;2023-04-07T00:43:05;93793.13;;;2.19;nan
9277;BME280;4676;42.678;23.244;2023-04-07T00:45:33;93789.78;;;2.19;nan
9277;BME280;4676;42.678;23.244;2023-04-07T00:48:00;93790.66;;;2.15;nan
9277;BME280;4676;42.678;23.244;2023-04-07T00:50:27;93741.94;;;1.86;nan
9277;BME280;4676;42.678;23.244;2023-04-07T00:52:53;93794.78;;;2.19;nan
9277;BME280;4676;42.678;23.244;2023-04-07T00:55:21;93783.16;;;2.15;nan
9277;BME280;4676;42.678;23.244;2023-04-07T00:57:48;93783.22;;;2.13;nan
9277;BME280;4676;42.678;23.244;2023-04-07T01:00:16;93791.50;;;2.17;nan
9277;BME280;4676;42.678;23.244;2023-04-07T01:02:52;93788.09;;;2.21;nan
9277;BME280;4676;42.678;23.244;2023-04-07T01:05:25;93777.34;;;2.16;nan
9277;BME280;4676;42.678;23.244;2023-04-07T01:08:02;93781.47;;;2.18;nan
9277;BME280;4676;42.678;23.244;2023-04-07T01:10:36;93777.28;;;2.19;nan
9277;BME280;4676;42.678;23.244;2023-04-07T01:13:11;93776.41;;;2.24;nan
9277;BME280;4676;42.678;23.244;2023-04-07T01:15:45;93777.22;;;2.23;nan
9277;BME280;4676;42.678;23.244;2023-04-07T01:18:21;93777.31;;;2.17;nan
9277;BME280;4676;42.678;23.244;2023-04-07T01:20:50;93772.25;;;2.22;nan
9277;BME280;4676;42.678;23.244;2023-04-07T01:23:29;93772.22;;;2.25;nan
9277;BME280;4676;42.678;23.244;2023-04-07T01:26:09;93770.47;;;2.31;nan
9277;BME280;4676;42.678;23.244;2023-04-07T01:28:53;93776.31;;;2.30;nan
9277;BME280;4676;42.678;23.244;2023-04-07T01:31:25;93778.78;;;2.32;nan
9277;BME280;4676;42.678;23.244;2023-04-07T01:33:54;93776.19;;;2.38;nan
9277;BME280;4676;42.678;23.244;2023-04-07T01:36:21;93778.66;;;2.39;nan
9277;BME280;4676;42.678;23.244;2023-04-07T01:38:49;93779.44;;;2.44;nan
9277;BME280;4676;42.678;23.244;2023-04-07T01:41:17;93778.56;;;2.47;nan
9277;BME280;4676;42.678;23.244;2023-04-07T01:43:45;93772.72;;;2.48;nan
9277;BME280;4676;42.678;23.244;2023-04-07T01:46:13;93767.72;;;2.49;nan
9277;BME280;4676;42.678;23.244;2023-04-07T01:48:41;93759.34;;;2.50;nan
9277;BME280;4676;42.678;23.244;2023-04-07T01:51:09;93763.66;;;2.42;nan
9277;BME280;4676;42.678;23.244;2023-04-07T01:53:41;93762.72;;;2.48;nan
9277;BME280;4676;42.678;23.244;2023-04-07T01:56:08;93764.41;;;2.46;nan
9277;BME280;4676;42.678;23.244;2023-04-07T01:58:35;93761.94;;;2.43;nan
9277;BME280;4676;42.678;23.244;2023-04-07T02:01:02;93761.13;;;2.42;nan
9277;BME280;4676;42.678;23.244;2023-04-07T02:03:33;93759.53;;;2.38;nan
9277;BME280;4676;42.678;23.244;2023-04-07T02:06:05;93755.38;;;2.37;nan
9277;BME280;4676;42.678;23.244;2023-04-07T02:08:35;93752.81;;;2.40;nan
9277;BME280;4676;42.678;23.244;2023-04-07T02:11:02;93755.31;;;2.40;nan
9277;BME280;4676;42.678;23.244;2023-04-07T02:13:33;93755.22;;;2.46;nan
9277;BME280;4676;42.678;23.244;2023-04-07T02:16:00;93761.09;;;2.45;nan
9277;BME280;4676;42.678;23.244;2023-04-07T02:18:29;93746.00;;;2.50;nan
9277;BME280;4676;42.678;23.244;2023-04-07T02:20:57;93760.13;;;2.54;nan
9277;BME280;4676;42.678;23.244;2023-04-07T02:23:26;93764.34;;;2.50;nan
9277;BME280;4676;42.678;23.244;2023-04-07T02:25:55;93762.72;;;2.46;nan
9277;BME280;4676;42.678;23.244;2023-04-07T02:28:22;93761.78;;;2.55;nan
9277;BME280;4676;42.678;23.244;2023-04-07T02:30:49;93771.72;;;2.60;nan
9277;BME280;4676;42.678;23.244;2023-04-07T02:33:15;93769.16;;;2.63;nan
9277;BME280;4676;42.678;23.244;2023-04-07T02:35:42;93769.94;;;2.66;nan
9277;BME280;4676;42.678;23.244;2023-04-07T02:38:09;93764.81;;;2.74;nan
9277;BME280;4676;42.678;23.244;2023-04-07T02:40:37;93762.16;;;2.84;nan
9277;BME280;4676;42.678;23.244;2023-04-07T02:43:04;93762.16;;;2.84;nan
9277;BME280;4676;42.678;23.244;2023-04-07T02:45:30;93764.63;;;2.86;nan
9277;BME280;4676;42.678;23.244;2023-04-07T02:47:57;93765.56;;;2.80;nan
9277;BME280;4676;42.678;23.244;2023-04-07T02:50:24;93764.72;;;2.81;nan
9277;BME280;4676;42.678;23.244;2023-04-07T02:52:50;93769.63;;;2.86;nan
9277;BME280;4676;42.678;23.244;2023-04-07T02:55:17;93770.44;;;2.86;nan
9277;BME280;4676;42.678;23.244;2023-04-07T02:57:45;93762.94;;;2.86;nan
9277;BME280;4676;42.678;23.244;2023-04-07T03:00:13;93763.88;;;2.79;nan
9277;BME280;4676;42.678;23.244;2023-04-07T03:02:40;93771.28;;;2.85;nan
9277;BME280;4676;42.678;23.244;2023-04-07T03:05:07;93769.56;;;2.90;nan
9277;BME280;4676;42.678;23.244;2023-04-07T03:07:34;93766.94;;;2.96;nan
9277;BME280;4676;42.678;23.244;2023-04-07T03:10:00;93772.84;;;2.94;nan
9277;BME280;4676;42.678;23.244;2023-04-07T03:12:27;93774.50;;;2.93;nan
9277;BME280;4676;42.678;23.244;2023-04-07T03:14:55;93772.78;;;2.98;nan
9277;BME280;4676;42.678;23.244;2023-04-07T03:17:22;93771.03;;;3.02;nan
9277;BME280;4676;42.678;23.244;2023-04-07T03:19:48;93773.72;;;2.90;nan
9277;BME280;4676;42.678;23.244;2023-04-07T03:22:16;93771.16;;;2.94;nan
9277;BME280;4676;42.678;23.244;2023-04-07T03:24:42;93773.72;;;2.91;nan
9277;BME280;4676;42.678;23.244;2023-04-07T03:27:09;93771.28;;;2.87;nan
9277;BME280;4676;42.678;23.244;2023-04-07T03:29:36;93769.66;;;2.83;nan
9277;BME280;4676;42.678;23.244;2023-04-07T03:32:04;93763.88;;;2.79;nan
9277;BME280;4676;42.678;23.244;2023-04-07T03:34:31;93768.16;;;2.74;nan
9277;BME280;4676;42.678;23.244;2023-04-07T03:36:57;93767.28;;;2.77;nan
9277;BME280;4676;42.678;23.244;2023-04-07T03:39:24;93760.72;;;2.70;nan
9277;BME280;4676;42.678;23.244;2023-04-07T03:41:51;93776.72;;;2.60;nan
9277;BME280;4676;42.678;23.244;2023-04-07T03:44:17;93770.88;;;2.59;nan
9277;BME280;4676;42.678;23.244;2023-04-07T03:46:44;93766.63;;;2.64;nan
9277;BME280;4676;42.678;23.244;2023-04-07T03:49:13;93764.28;;;2.55;nan
9277;BME280;4676;42.678;23.244;2023-04-07T03:51:40;93779.22;;;2.58;nan
9277;BME280;4676;42.678;23.244;2023-04-07T03:54:07;93772.53;;;2.60;nan
9277;BME280;4676;42.678;23.244;2023-04-07T03:56:33;93775.09;;;2.56;nan
9277;BME280;4676;42.678;23.244;2023-04-07T03:59:01;93773.38;;;2.59;nan
9277;BME280;4676;42.678;23.244;2023-04-07T04:01:28;93765.91;;;2.58;nan
9277;BME280;4676;42.678;23.244;2023-04-07T04:03:55;93773.34;;;2.61;nan
9277;BME280;4676;42.678;23.244;2023-04-07T04:06:23;93772.56;;;2.59;nan
9277;BME280;4676;42.678;23.244;2023-04-07T04:08:51;93777.59;;;2.56;nan
9277;BME280;4676;42.678;23.244;2023-04-07T04:11:18;93773.44;;;2.56;nan
9277;BME280;4676;42.678;23.244;2023-04-07T04:13:44;93771.78;;;2.57;nan
9277;BME280;4676;42.678;23.244;2023-04-07T04:16:11;93777.56;;;2.60;nan
9277;BME280;4676;42.678;23.244;2023-04-07T04:18:38;93759.38;;;2.47;nan
9277;BME280;4676;42.678;23.244;2023-04-07T04:21:06;93778.97;;;2.75;nan
9277;BME280;4676;42.678;23.244;2023-04-07T04:23:34;93779.84;;;2.74;nan
9277;BME280;4676;42.678;23.244;2023-04-07T04:26:01;93770.50;;;2.83;nan
9277;BME280;4676;42.678;23.244;2023-04-07T04:28:29;93779.72;;;2.81;nan
9277;BME280;4676;42.678;23.244;2023-04-07T04:30:55;93781.41;;;2.81;nan
9277;BME280;4676;42.678;23.244;2023-04-07T04:33:22;93786.28;;;2.87;nan
9277;BME280;4676;42.678;23.244;2023-04-07T04:35:49;93783.00;;;2.85;nan
9277;BME280;4676;42.678;23.244;2023-04-07T04:38:16;93788.75;;;2.90;nan
9277;BME280;4676;42.678;23.244;2023-04-07T04:40:44;93788.78;;;2.87;nan
9277;BME280;4676;42.678;23.244;2023-04-07T04:43:11;93792.91;;;2.91;nan
9277;BME280;4676;42.678;23.244;2023-04-07T04:45:37;93795.41;;;2.91;nan
9277;BME280;4676;42.678;23.244;2023-04-07T04:48:05;93801.13;;;2.99;nan
9277;BME280;4676;42.678;23.244;2023-04-07T04:50:31;93795.94;;;3.10;nan
9277;BME280;4676;42.678;23.244;2023-04-07T04:52:58;93791.75;;;3.10;nan
9277;BME280;4676;42.678;23.244;2023-04-07T04:55:25;93804.25;;;3.10;nan
9277;BME280;4676;42.678;23.244;2023-04-07T04:57:53;93804.19;;;3.16;nan
9277;BME280;4676;42.678;23.244;2023-04-07T05:00:20;93811.63;;;3.19;nan
9277;BME280;4676;42.678;23.244;2023-04-07T05:02:47;93804.19;;;3.16;nan
9277;BME280;4676;42.678;23.244;2023-04-07T05:05:13;93800.66;;;3.26;nan
9277;BME280;4676;42.678;23.244;2023-04-07T05:07:40;93808.06;;;3.31;nan
9277;BME280;4676;42.678;23.244;2023-04-07T05:10:07;93817.22;;;3.33;nan
9277;BME280;4676;42.678;23.244;2023-04-07T05:12:35;93814.69;;;3.35;nan
9277;BME280;4676;42.678;23.244;2023-04-07T05:15:04;93820.34;;;3.46;nan
9277;BME280;4676;42.678;23.244;2023-04-07T05:17:31;93820.22;;;3.52;nan
9277;BME280;4676;42.678;23.244;2023-04-07T05:19:57;93830.06;;;3.63;nan
9277;BME280;4676;42.678;23.244;2023-04-07T05:22:24;93823.94;;;3.77;nan
9277;BME280;4676;42.678;23.244;2023-04-07T05:24:51;93822.19;;;3.82;nan
9277;BME280;4676;42.678;23.244;2023-04-07T05:27:17;93825.53;;;3.81;nan
9277;BME280;4676;42.678;23.244;2023-04-07T05:29:44;93835.69;;;3.74;nan
9277;BME280;4676;42.678;23.244;2023-04-07T05:32:12;93837.50;;;3.67;nan
9277;BME280;4676;42.678;23.244;2023-04-07T05:34:39;93779.50;;;3.42;nan
9277;BME280;4676;42.678;23.244;2023-04-07T05:37:05;93825.63;;;3.77;nan
9277;BME280;4676;42.678;23.244;2023-04-07T05:39:32;93837.22;;;3.82;nan
9277;BME280;4676;42.678;23.244;2023-04-07T05:41:59;93815.78;;;3.68;nan
9277;BME280;4676;42.678;23.244;2023-04-07T05:44:25;93833.06;;;3.81;nan
9277;BME280;4676;42.678;23.244;2023-04-07T05:46:52;93842.25;;;3.82;nan
9277;BME280;4676;42.678;23.244;2023-04-07T05:49:20;93834.66;;;3.85;nan
9277;BME280;4676;42.678;23.244;2023-04-07T05:51:47;93837.25;;;3.81;nan
9277;BME280;4676;42.678;23.244;2023-04-07T05:54:14;93842.19;;;3.85;nan
9277;BME280;4676;42.678;23.244;2023-04-07T05:56:40;93839.84;;;3.76;nan
9277;BME280;4676;42.678;23.244;2023-04-07T05:59:07;93838.00;;;3.86;nan
9277;BME280;4676;42.678;23.244;2023-04-07T06:01:34;93832.78;;;3.95;nan
9277;BME280;4676;42.678;23.244;2023-04-07T06:04:00;93830.00;;;4.10;nan
9277;BME280;4676;42.678;23.244;2023-04-07T06:06:29;93829.84;;;4.18;nan
9277;BME280;4676;42.678;23.244;2023-04-07T06:08:55;93808.81;;;4.23;nan
9277;BME280;4676;42.678;23.244;2023-04-07T06:11:22;93820.09;;;4.44;nan
9277;BME280;4676;42.678;23.244;2023-04-07T06:13:49;93838.94;;;4.62;nan
9277;BME280;4676;42.678;23.244;2023-04-07T06:16:15;93824.03;;;4.56;nan
9277;BME280;4676;42.678;23.244;2023-04-07T06:18:42;93820.50;;;4.64;nan
9277;BME280;4676;42.678;23.244;2023-04-07T06:21:09;93825.25;;;4.76;nan
9277;BME280;4676;42.678;23.244;2023-04-07T06:23:37;93824.94;;;4.90;nan
9277;BME280;4676;42.678;23.244;2023-04-07T06:26:04;93824.34;;;5.14;nan
9277;BME280;4676;42.678;23.244;2023-04-07T06:28:31;93821.22;;;5.40;nan
9277;BME280;4676;42.678;23.244;2023-04-07T06:30:58;93824.25;;;5.52;nan
9277;BME280;4676;42.678;23.244;2023-04-07T06:33:24;93830.75;;;5.60;nan
9277;BME280;4676;42.678;23.244;2023-04-07T06:35:52;93831.72;;;5.89;nan
9277;BME280;4676;42.678;23.244;2023-04-07T06:38:19;93837.56;;;6.21;nan
9277;BME280;4676;42.678;23.244;2023-04-07T06:40:47;93820.16;;;6.42;nan
9277;BME280;4676;42.678;23.244;2023-04-07T06:43:14;93830.91;;;6.47;nan
9277;BME280;4676;42.678;23.244;2023-04-07T06:45:41;93830.13;;;6.75;nan
9277;BME280;4676;42.678;23.244;2023-04-07T06:48:07;93836.75;;;7.05;nan
9277;BME280;4676;42.678;23.244;2023-04-07T06:50:35;93824.34;;;7.25;nan
9277;BME280;4676;42.678;23.244;2023-04-07T06:53:02;93833.53;;;7.28;nan
9277;BME280;4676;42.678;23.244;2023-04-07T06:55:28;93829.78;;;7.13;nan
9277;BME280;4676;42.678;23.244;2023-04-07T06:57:57;93839.16;;;6.82;nan
9277;BME280;4676;42.678;23.244;2023-04-07T07:00:24;93847.50;;;6.54;nan
9277;BME280;4676;42.678;23.244;2023-04-07T07:02:53;93842.09;;;6.39;nan
9277;BME280;4676;42.678;23.244;2023-04-07T07:05:20;93831.66;;;6.51;nan
9277;BME280;4676;42.678;23.244;2023-04-07T07:07:47;93835.47;;;6.64;nan
9277;BME280;4676;42.678;23.244;2023-04-07T07:10:14;93840.44;;;6.67;nan
9277;BME280;4676;42.678;23.244;2023-04-07T07:12:41;93847.25;;;6.64;nan
9277;BME280;4676;42.678;23.244;2023-04-07T07:15:09;93849.38;;;6.48;nan
9277;BME280;4676;42.678;23.244;2023-04-07T07:17:36;93848.84;;;6.37;nan
9277;BME280;4676;42.678;23.244;2023-04-07T07:20:04;93862.25;;;6.07;nan
9277;BME280;4676;42.678;23.244;2023-04-07T07:22:31;93852.78;;;6.16;nan
9277;BME280;4676;42.678;23.244;2023-04-07T07:24:57;93856.63;;;6.29;nan
9277;BME280;4676;42.678;23.244;2023-04-07T07:27:24;93848.47;;;6.20;nan
9277;BME280;4676;42.678;23.244;2023-04-07T07:29:51;93858.31;;;6.29;nan
9277;BME280;4676;42.678;23.244;2023-04-07T07:32:19;93862.84;;;6.47;nan
9277;BME280;4676;42.678;23.244;2023-04-07T07:34:46;93858.09;;;6.66;nan
9277;BME280;4676;42.678;23.244;2023-04-07T07:37:12;93863.59;;;6.78;nan
9277;BME280;4676;42.678;23.244;2023-04-07T07:39:39;93873.50;;;6.84;nan
9277;BME280;4676;42.678;23.244;2023-04-07T07:42:06;93871.59;;;6.92;nan
9277;BME280;4676;42.678;23.244;2023-04-07T07:44:32;93869.50;;;7.05;nan
9277;BME280;4676;42.678;23.244;2023-04-07T07:46:59;93874.84;;;6.96;nan
9277;BME280;4676;42.678;23.244;2023-04-07T07:49:27;93875.50;;;7.01;nan
9277;BME280;4676;42.678;23.244;2023-04-07T07:51:54;93881.19;;;7.08;nan
9277;BME280;4676;42.678;23.244;2023-04-07T07:54:21;93855.59;;;7.21;nan
9277;BME280;4676;42.678;23.244;2023-04-07T07:56:48;93875.97;;;7.40;nan
9277;BME280;4676;42.678;23.244;2023-04-07T07:59:15;93863.75;;;7.54;nan
9277;BME280;4676;42.678;23.244;2023-04-07T08:01:42;93867.34;;;7.73;nan
9277;BME280;4676;42.678;23.244;2023-04-07T08:04:08;93867.19;;;8.02;nan
9277;BME280;4676;42.678;23.244;2023-04-07T08:06:36;93869.50;;;7.84;nan
9277;BME280;4676;42.678;23.244;2023-04-07T08:09:03;93868.47;;;7.89;nan
9277;BME280;4676;42.678;23.244;2023-04-07T08:11:30;93873.31;;;7.95;nan
9277;BME280;4676;42.678;23.244;2023-04-07T08:13:57;93871.56;;;7.97;nan
9277;BME280;4676;42.678;23.244;2023-04-07T08:16:23;93873.41;;;7.92;nan
9277;BME280;4676;42.678;23.244;2023-04-07T08:18:51;93869.16;;;7.94;nan
9277;BME280;4676;42.678;23.244;2023-04-07T08:21:17;93871.25;;;7.82;nan
9277;BME280;4676;42.678;23.244;2023-04-07T08:23:46;93882.41;;;7.75;nan
9277;BME280;4676;42.678;23.244;2023-04-07T08:26:13;93884.91;;;7.50;nan
9277;BME280;4676;42.678;23.244;2023-04-07T08:28:40;93883.88;;;7.01;nan
9277;BME280;4676;42.678;23.244;2023-04-07T08:31:06;93878.75;;;7.04;nan
9277;BME280;4676;42.678;23.244;2023-04-07T08:33:33;93873.19;;;6.95;nan
9277;BME280;4676;42.678;23.244;2023-04-07T08:36:00;93883.78;;;7.04;nan
9277;BME280;4676;42.678;23.244;2023-04-07T08:38:26;93873.72;;;7.04;nan
9277;BME280;4676;42.678;23.244;2023-04-07T08:41:02;93863.84;;;7.25;nan
9277;BME280;4676;42.678;23.244;2023-04-07T08:43:30;93864.25;;;7.65;nan
9277;BME280;4676;42.678;23.244;2023-04-07T08:45:59;93871.31;;;7.80;nan
9277;BME280;4676;42.678;23.244;2023-04-07T08:48:27;93869.59;;;7.56;nan
9277;BME280;4676;42.678;23.244;2023-04-07T08:50:59;93879.50;;;7.61;nan
9277;BME280;4676;42.678;23.244;2023-04-07T08:53:35;93868.53;;;7.63;nan
9277;BME280;4676;42.678;23.244;2023-04-07T08:56:05;93878.09;;;7.78;nan
9277;BME280;4676;42.678;23.244;2023-04-07T08:58:32;93865.38;;;8.31;nan
9277;BME280;4676;42.678;23.244;2023-04-07T09:01:00;93872.53;;;8.18;nan
9277;BME280;4676;42.678;23.244;2023-04-07T09:03:28;93870.84;;;7.94;nan
9277;BME280;4676;42.678;23.244;2023-04-07T09:05:57;93871.94;;;7.61;nan
9277;BME280;4676;42.678;23.244;2023-04-07T09:08:25;93869.91;;;7.72;nan
9277;BME280;4676;42.678;23.244;2023-04-07T09:10:52;93868.22;;;7.97;nan
9277;BME280;4676;42.678;23.244;2023-04-07T09:13:20;93868.59;;;8.36;nan
9277;BME280;4676;42.678;23.244;2023-04-07T09:15:47;93870.34;;;8.57;nan
9277;BME280;4676;42.678;23.244;2023-04-07T09:18:14;93887.81;;;8.86;nan
9277;BME280;4676;42.678;23.244;2023-04-07T09:20:55;93883.78;;;8.81;nan
9277;BME280;4676;42.678;23.244;2023-04-07T09:23:27;93874.97;;;8.46;nan
9277;BME280;4676;42.678;23.244;2023-04-07T09:25:55;93890.00;;;8.24;nan
9277;BME280;4676;42.678;23.244;2023-04-07T09:28:37;93881.44;;;8.03;nan
9277;BME280;4676;42.678;23.244;2023-04-07T09:31:04;93897.94;;;8.14;nan
9277;BME280;4676;42.678;23.244;2023-04-07T09:33:32;93884.94;;;8.24;nan
9277;BME280;4676;42.678;23.244;2023-04-07T09:35:59;93883.31;;;7.98;nan
9277;BME280;4676;42.678;23.244;2023-04-07T09:38:32;93898.00;;;7.61;nan
9277;BME280;4676;42.678;23.244;2023-04-07T09:41:04;93884.47;;;7.37;nan
9277;BME280;4676;42.678;23.244;2023-04-07T09:43:34;93896.31;;;7.62;nan
9277;BME280;4676;42.678;23.244;2023-04-07T09:46:09;93894.22;;;7.48;nan
9277;BME280;4676;42.678;23.244;2023-04-07T09:48:36;93898.78;;;7.63;nan
9277;BME280;4676;42.678;23.244;2023-04-07T09:51:08;93893.28;;;7.77;nan
9277;BME280;4676;42.678;23.244;2023-04-07T09:53:43;93890.31;;;8.15;nan
9277;BME280;4676;42.678;23.244;2023-04-07T09:56:10;93879.50;;;8.12;nan
9277;BME280;4676;42.678;23.244;2023-04-07T09:58:39;93893.22;;;8.52;nan
9277;BME280;4676;42.678;23.244;2023-04-07T10:01:06;93896.13;;;8.42;nan
9277;BME280;4676;42.678;23.244;2023-04-07T10:03:34;93894.50;;;7.91;nan
9277;BME280;4676;42.678;23.244;2023-04-07T10:06:01;93868.19;;;7.74;nan
9277;BME280;4676;42.678;23.244;2023-04-07T10:08:30;93891.97;;;7.91;nan
9277;BME280;4676;42.678;23.244;2023-04-07T10:10:58;93883.50;;;7.92;nan
9277;BME280;4676;42.678;23.244;2023-04-07T10:13:27;93893.22;;;7.78;nan
9277;BME280;4676;42.678;23.244;2023-04-07T10:15:56;93870.25;;;7.61;nan
9277;BME280;4676;42.678;23.244;2023-04-07T10:18:27;93889.47;;;7.65;nan
9277;BME280;4676;42.678;23.244;2023-04-07T10:20:56;93868.25;;;7.71;nan
9277;BME280;4676;42.678;23.244;2023-04-07T10:23:31;93883.59;;;7.65;nan
9277;BME280;4676;42.678;23.244;2023-04-07T10:25:59;93886.97;;;7.90;nan
9277;BME280;4676;42.678;23.244;2023-04-07T10:28:27;93891.16;;;8.16;nan
9277;BME280;4676;42.678;23.244;2023-04-07T10:30:58;93903.81;;;8.39;nan
9277;BME280;4676;42.678;23.244;2023-04-07T10:33:44;93887.25;;;8.32;nan
9277;BME280;4676;42.678;23.244;2023-04-07T10:36:11;93898.03;;;8.11;nan
9277;BME280;4676;42.678;23.244;2023-04-07T10:38:38;93909.13;;;7.56;nan
9277;BME280;4676;42.678;23.244;2023-04-07T10:41:31;93912.03;;;7.16;nan
9277;BME280;4676;42.678;23.244;2023-04-07T10:44:01;93910.53;;;7.10;nan
9277;BME280;4676;42.678;23.244;2023-04-07T10:49:35;93886.72;;;6.91;nan
9277;BME280;4676;42.678;23.244;2023-04-07T10:52:21;93885.00;;;6.93;nan
9277;BME280;4676;42.678;23.244;2023-04-07T10:58:12;93901.75;;;6.94;nan
9277;BME280;4676;42.678;23.244;2023-04-07T11:00:39;93899.50;;;7.13;nan
9277;BME280;4676;42.678;23.244;2023-04-07T11:03:09;93893.44;;;7.18;nan
9277;BME280;4676;42.678;23.244;2023-04-07T11:05:39;93909.53;;;7.42;nan
9277;BME280;4676;42.678;23.244;2023-04-07T11:08:05;93914.41;;;7.46;nan
9277;BME280;4676;42.678;23.244;2023-04-07T11:10:32;93917.41;;;7.59;nan
9277;BME280;4676;42.678;23.244;2023-04-07T11:13:05;93913.66;;;7.44;nan
9277;BME280;4676;42.678;23.244;2023-04-07T11:15:32;93906.38;;;7.62;nan
9277;BME280;4676;42.678;23.244;2023-04-07T11:18:17;93909.78;;;7.61;nan
9277;BME280;4676;42.678;23.244;2023-04-07T11:20:47;93904.56;;;7.67;nan
9277;BME280;4676;42.678;23.244;2023-04-07T11:23:16;93900.03;;;7.76;nan
9277;BME280;4676;42.678;23.244;2023-04-07T11:25:44;93904.31;;;7.99;nan
9277;BME280;4676;42.678;23.244;2023-04-07T11:28:12;93904.53;;;8.18;nan
9277;BME280;4676;42.678;23.244;2023-04-07T11:30:44;93915.47;;;7.92;nan
9277;BME280;4676;42.678;23.244;2023-04-07T11:33:14;93917.19;;;7.65;nan
9277;BME280;4676;42.678;23.244;2023-04-07T11:35:48;93907.13;;;7.65;nan
9277;BME280;4676;42.678;23.244;2023-04-07T11:38:15;93910.81;;;7.55;nan
9277;BME280;4676;42.678;23.244;2023-04-07T11:40:42;93914.81;;;7.61;nan
9277;BME280;4676;42.678;23.244;2023-04-07T11:43:16;93917.41;;;7.59;nan
9277;BME280;4676;42.678;23.244;2023-04-07T11:45:42;93913.84;;;7.65;nan
9277;BME280;4676;42.678;23.244;2023-04-07T11:48:24;93917.75;;;7.48;nan
9277;BME280;4676;42.678;23.244;2023-04-07T11:50:52;93926.69;;;7.31;nan
9277;BME280;4676;42.678;23.244;2023-04-07T11:53:24;93917.19;;;7.39;nan
9277;BME280;4676;42.678;23.244;2023-04-07T11:55:58;93900.84;;;7.50;nan
9277;BME280;4676;42.678;23.244;2023-04-07T11:58:25;93916.38;;;7.65;nan
9277;BME280;4676;42.678;23.244;2023-04-07T12:00:53;93898.72;;;7.38;nan
9277;BME280;4676;42.678;23.244;2023-04-07T12:03:20;93902.38;;;7.28;nan
9277;BME280;4676;42.678;23.244;2023-04-07T12:05:46;93908.97;;;7.32;nan
9277;BME280;4676;42.678;23.244;2023-04-07T12:08:15;93906.94;;;7.45;nan
9277;BME280;4676;42.678;23.244;2023-04-07T12:10:42;93902.84;;;7.41;nan
9277;BME280;4676;42.678;23.244;2023-04-07T12:13:08;93900.91;;;7.49;nan
9277;BME280;4676;42.678;23.244;2023-04-07T12:15:35;93906.34;;;7.63;nan
9277;BME280;4676;42.678;23.244;2023-04-07T12:18:02;93904.16;;;7.52;nan
9277;BME280;4676;42.678;23.244;2023-04-07T12:20:29;93903.72;;;7.66;nan
9277;BME280;4676;42.678;23.244;2023-04-07T12:22:56;93903.53;;;7.72;nan
9277;BME280;4676;42.678;23.244;2023-04-07T12:25:25;93904.47;;;7.94;nan
9277;BME280;4676;42.678;23.244;2023-04-07T12:27:52;93911.25;;;7.92;nan
9277;BME280;4676;42.678;23.244;2023-04-07T12:30:19;93904.34;;;7.73;nan
9277;BME280;4676;42.678;23.244;2023-04-07T12:32:46;93897.66;;;7.72;nan
9277;BME280;4676;42.678;23.244;2023-04-07T12:35:13;93903.88;;;7.88;nan
9277;BME280;4676;42.678;23.244;2023-04-07T12:37:40;93905.25;;;7.96;nan
9277;BME280;4676;42.678;23.244;2023-04-07T12:40:07;93902.72;;;8.21;nan
9277;BME280;4676;42.678;23.244;2023-04-07T12:42:36;93906.47;;;8.36;nan
9277;BME280;4676;42.678;23.244;2023-04-07T12:45:03;93900.91;;;8.00;nan
9277;BME280;4676;42.678;23.244;2023-04-07T12:47:29;93912.91;;;7.93;nan
9277;BME280;4676;42.678;23.244;2023-04-07T12:49:56;93911.94;;;7.71;nan
9277;BME280;4676;42.678;23.244;2023-04-07T12:52:23;93907.59;;;7.76;nan
9277;BME280;4676;42.678;23.244;2023-04-07T12:54:50;93904.78;;;7.59;nan
9277;BME280;4676;42.678;23.244;2023-04-07T12:57:17;93908.50;;;7.47;nan
9277;BME280;4676;42.678;23.244;2023-04-07T12:59:45;93900.41;;;7.64;nan
9277;BME280;4676;42.678;23.244;2023-04-07T13:02:12;93902.91;;;7.66;nan
9277;BME280;4676;42.678;23.244;2023-04-07T13:04:39;93906.50;;;7.59;nan
9277;BME280;4676;42.678;23.244;2023-04-07T13:07:07;93920.09;;;7.53;nan
9277;BME280;4676;42.678;23.244;2023-04-07T13:09:34;93914.50;;;7.45;nan
9277;BME280;4676;42.678;23.244;2023-04-07T13:12:01;93916.94;;;7.46;nan
9277;BME280;4676;42.678;23.244;2023-04-07T13:14:28;93914.28;;;7.51;nan
9277;BME280;4676;42.678;23.244;2023-04-07T13:16:56;93917.31;;;7.62;nan
9277;BME280;4676;42.678;23.244;2023-04-07T13:19:22;93912.38;;;7.59;nan
9277;BME280;4676;42.678;23.244;2023-04-07T13:21:49;93913.25;;;7.57;nan
9277;BME280;4676;42.678;23.244;2023-04-07T13:24:16;93917.19;;;7.39;nan
9277;BME280;4676;42.678;23.244;2023-04-07T13:26:43;93919.03;;;7.60;nan
9277;BME280;4676;42.678;23.244;2023-04-07T13:29:09;93913.50;;;7.75;nan
9277;BME280;4676;42.678;23.244;2023-04-07T13:31:36;93923.72;;;7.97;nan
9277;BME280;4676;42.678;23.244;2023-04-07T13:34:04;93899.06;;;7.80;nan
9277;BME280;4676;42.678;23.244;2023-04-07T13:36:31;93926.59;;;7.60;nan
9277;BME280;4676;42.678;23.244;2023-04-07T13:38:58;93932.31;;;7.39;nan
9277;BME280;4676;42.678;23.244;2023-04-07T13:41:25;93931.41;;;7.14;nan
9277;BME280;4676;42.678;23.244;2023-04-07T13:43:51;93932.00;;;7.22;nan
9277;BME280;4676;42.678;23.244;2023-04-07T13:46:18;93937.75;;;7.25;nan
9277;BME280;4676;42.678;23.244;2023-04-07T13:48:45;93920.81;;;7.02;nan
9277;BME280;4676;42.678;23.244;2023-04-07T13:51:13;93940.25;;;7.27;nan
9277;BME280;4676;42.678;23.244;2023-04-07T13:53:40;93945.22;;;7.00;nan
9277;BME280;4676;42.678;23.244;2023-04-07T13:56:07;93955.16;;;7.05;nan